This is the latest recevied weather packets stored in our database for station/object W4SMH. If no packets are shown the sender has not sent any weather packets the latest 10 day(s).
| Time | Temp. | Humidity | Pressure | Rain* | Wind** | Luminosity | Snow |
|---|---|---|---|---|---|---|---|
| 1777900608 | 14.44° C | 64% | 1000.8 hPa | 0 mm | - | 417 W/m² | - |
| 1777900354 | 14.44° C | 64% | 1000.7 hPa | 0 mm | - | 403 W/m² | - |
| 1777900325 | 13.89° C | 65% | 1000.8 hPa | 0 mm | - | 397 W/m² | - |
| 1777900085 | 13.89° C | 66% | 1000.8 hPa | 0 mm | - | 387 W/m² | - |
| 1777899802 | 13.33° C | 67% | 1001 hPa | 0 mm | - | 369 W/m² | - |
| 1777899771 | 13.33° C | 67% | 1001 hPa | 0 mm | - | 366 W/m² | - |
| 1777899682 | 13.33° C | 68% | 1001.1 hPa | 0 mm | - | 357 W/m² | - |
| 1777898757 | 12.22° C | 70% | 1000.8 hPa | 0 mm | - | 311 W/m² | - |
| 1777898724 | 12.22° C | 70% | 1000.9 hPa | 0 mm | - | 308 W/m² | - |
| 1777898504 | 11.67° C | 72% | 1000.9 hPa | 0 mm | - | 287 W/m² | - |
| 1777897004 | 10° C | 76% | 1001 hPa | 0 mm | - | 174 W/m² | - |
| 1777896584 | 9.44° C | 78% | 1001.1 hPa | 0 mm | - | 142 W/m² | - |
| 1777896137 | 9.44° C | 78% | 1001 hPa | 0 mm | - | 98 W/m² | - |
| 1777896050 | 8.89° C | 79% | 1001.1 hPa | 0 mm | - | 86 W/m² | - |
| 1777895886 | 8.89° C | 79% | 1001 hPa | 0 mm | - | 74 W/m² | - |
| 1777895858 | 8.33° C | 79% | 1001 hPa | 0 mm | - | 76 W/m² | - |
| 1777894600 | 8.33° C | 79% | 1000.7 hPa | 0 mm | - | 32 W/m² | - |
| 1777894561 | 7.78° C | 79% | 1000.8 hPa | 0 mm | - | 32 W/m² | - |
| 1777894533 | 7.78° C | 79% | 1000.8 hPa | 0 mm | - | 30 W/m² | - |
| 1777894167 | 7.78° C | 79% | 1000.8 hPa | 0 mm | - | 19 W/m² | - |
| 1777893579 | 7.78° C | 80% | 1000.8 hPa | 0 mm | - | 16 W/m² | - |
| 1777893238 | 8.33° C | 79% | 1000.9 hPa | 0 mm | - | 12 W/m² | - |
| 1777893179 | 8.33° C | 79% | 1000.8 hPa | 0 mm | - | 12 W/m² | - |
| 1777893122 | 8.33° C | 79% | 1000.9 hPa | 0 mm | - | 11 W/m² | - |
| 1777893073 | 8.33° C | 79% | 1000.9 hPa | 0 mm | - | 11 W/m² | - |
* Rain latest hour (hover to see other rain measurements)
** Current wind speed in m/s (hover to see current wind gust speed)